sensor_id;sensor_type;location;lat;lon;timestamp;pressure;altitude;pressure_sealevel;temperature;humidity
48614;BME280;34408;51.426;5.444;2023-05-27T00:01:24;102813.50;;;16.43;43.92
48614;BME280;34408;51.426;5.444;2023-05-27T00:03:52;102807.66;;;16.39;44.11
48614;BME280;34408;51.426;5.444;2023-05-27T00:06:20;102809.75;;;16.37;44.14
48614;BME280;34408;51.426;5.444;2023-05-27T00:08:47;102806.41;;;16.35;44.14
48614;BME280;34408;51.426;5.444;2023-05-27T00:11:15;102813.94;;;16.33;43.92
48614;BME280;34408;51.426;5.444;2023-05-27T00:13:43;102814.16;;;16.32;44.03
48614;BME280;34408;51.426;5.444;2023-05-27T00:16:11;102807.28;;;16.29;43.99
48614;BME280;34408;51.426;5.444;2023-05-27T00:18:40;102806.44;;;16.28;44.10
48614;BME280;34408;51.426;5.444;2023-05-27T00:21:08;102796.84;;;16.26;44.08
48614;BME280;34408;51.426;5.444;2023-05-27T00:23:36;102809.78;;;16.24;44.23
48614;BME280;34408;51.426;5.444;2023-05-27T00:26:04;102805.63;;;16.21;44.29
48614;BME280;34408;51.426;5.444;2023-05-27T00:28:31;102806.66;;;16.20;44.25
48614;BME280;34408;51.426;5.444;2023-05-27T00:30:59;102798.72;;;16.19;44.22
48614;BME280;34408;51.426;5.444;2023-05-27T00:33:27;102800.00;;;16.16;44.25
48614;BME280;34408;51.426;5.444;2023-05-27T00:35:56;102801.03;;;16.15;44.18
48614;BME280;34408;51.426;5.444;2023-05-27T00:38:24;102793.31;;;16.12;43.99
48614;BME280;34408;51.426;5.444;2023-05-27T00:40:53;102809.59;;;16.12;44.25
48614;BME280;34408;51.426;5.444;2023-05-27T00:43:21;102806.25;;;16.10;44.14
48614;BME280;34408;51.426;5.444;2023-05-27T00:45:48;102810.00;;;16.09;44.26
48614;BME280;34408;51.426;5.444;2023-05-27T00:48:17;102801.25;;;16.07;44.20
48614;BME280;34408;51.426;5.444;2023-05-27T00:50:45;102796.66;;;16.08;44.09
48614;BME280;34408;51.426;5.444;2023-05-27T00:53:15;102805.00;;;16.06;44.32
48614;BME280;34408;51.426;5.444;2023-05-27T00:55:43;102803.56;;;16.04;44.29
48614;BME280;34408;51.426;5.444;2023-05-27T00:58:11;102806.47;;;16.02;44.30
48614;BME280;34408;51.426;5.444;2023-05-27T01:00:39;102803.13;;;16.00;44.33
48614;BME280;34408;51.426;5.444;2023-05-27T01:03:07;102794.16;;;16.00;44.30
48614;BME280;34408;51.426;5.444;2023-05-27T01:05:35;102798.13;;;15.97;44.54
48614;BME280;34408;51.426;5.444;2023-05-27T01:08:09;102794.59;;;15.97;44.14
48614;BME280;34408;51.426;5.444;2023-05-27T01:10:45;102791.25;;;15.94;44.40
48614;BME280;34408;51.426;5.444;2023-05-27T01:13:18;102790.63;;;15.92;44.23
48614;BME280;34408;51.426;5.444;2023-05-27T01:15:52;102790.84;;;15.91;44.31
48614;BME280;34408;51.426;5.444;2023-05-27T01:18:22;102789.16;;;15.90;44.26
48614;BME280;34408;51.426;5.444;2023-05-27T01:20:51;102784.16;;;15.87;44.33
48614;BME280;34408;51.426;5.444;2023-05-27T01:23:23;102786.88;;;15.87;44.51
48614;BME280;34408;51.426;5.444;2023-05-27T01:25:51;102786.47;;;15.83;44.51
48614;BME280;34408;51.426;5.444;2023-05-27T01:28:19;102778.31;;;15.83;44.53
48614;BME280;34408;51.426;5.444;2023-05-27T01:30:47;102780.63;;;15.80;44.67
48614;BME280;34408;51.426;5.444;2023-05-27T01:33:19;102773.53;;;15.79;44.79
48614;BME280;34408;51.426;5.444;2023-05-27T01:35:51;102776.47;;;15.77;44.53
48614;BME280;34408;51.426;5.444;2023-05-27T01:38:23;102776.66;;;15.76;44.70
48614;BME280;34408;51.426;5.444;2023-05-27T01:40:53;102773.31;;;15.74;44.81
48614;BME280;34408;51.426;5.444;2023-05-27T01:43:21;102778.97;;;15.72;44.76
48614;BME280;34408;51.426;5.444;2023-05-27T01:45:51;102769.38;;;15.70;44.68
48614;BME280;34408;51.426;5.444;2023-05-27T01:48:19;102764.97;;;15.69;44.89
48614;BME280;34408;51.426;5.444;2023-05-27T01:50:47;102769.78;;;15.67;44.79
48614;BME280;34408;51.426;5.444;2023-05-27T01:53:14;102770.00;;;15.65;44.85
48614;BME280;34408;51.426;5.444;2023-05-27T01:55:43;102763.94;;;15.63;44.74
48614;BME280;34408;51.426;5.444;2023-05-27T01:58:12;102764.97;;;15.62;44.68
48614;BME280;34408;51.426;5.444;2023-05-27T02:00:40;102752.72;;;15.59;45.10
48614;BME280;34408;51.426;5.444;2023-05-27T02:03:07;102758.34;;;15.58;44.85
48614;BME280;34408;51.426;5.444;2023-05-27T02:05:36;102763.09;;;15.56;44.90
48614;BME280;34408;51.426;5.444;2023-05-27T02:08:04;102759.97;;;15.52;44.90
48614;BME280;34408;51.426;5.444;2023-05-27T02:10:32;102761.03;;;15.51;45.05
48614;BME280;34408;51.426;5.444;2023-05-27T02:13:01;102759.56;;;15.49;45.15
48614;BME280;34408;51.426;5.444;2023-05-27T02:15:29;102762.47;;;15.47;45.02
48614;BME280;34408;51.426;5.444;2023-05-27T02:17:57;102765.59;;;15.44;45.12
48614;BME280;34408;51.426;5.444;2023-05-27T02:20:25;102754.13;;;15.42;45.40
48614;BME280;34408;51.426;5.444;2023-05-27T02:22:53;102758.72;;;15.42;45.16
48614;BME280;34408;51.426;5.444;2023-05-27T02:25:21;102759.97;;;15.39;45.43
48614;BME280;34408;51.426;5.444;2023-05-27T02:27:49;102765.41;;;15.39;45.45
48614;BME280;34408;51.426;5.444;2023-05-27T02:30:20;102761.00;;;15.38;45.36
48614;BME280;34408;51.426;5.444;2023-05-27T02:32:48;102763.94;;;15.37;45.51
48614;BME280;34408;51.426;5.444;2023-05-27T02:35:17;102762.47;;;15.34;45.18
48614;BME280;34408;51.426;5.444;2023-05-27T02:37:45;102767.25;;;15.32;45.41
48614;BME280;34408;51.426;5.444;2023-05-27T02:40:23;102770.19;;;15.30;45.63
48614;BME280;34408;51.426;5.444;2023-05-27T02:42:51;102768.50;;;15.29;45.66
48614;BME280;34408;51.426;5.444;2023-05-27T02:45:20;102761.41;;;15.28;45.33
48614;BME280;34408;51.426;5.444;2023-05-27T02:47:48;102758.91;;;15.27;45.33
48614;BME280;34408;51.426;5.444;2023-05-27T02:50:16;102761.81;;;15.25;45.48
48614;BME280;34408;51.426;5.444;2023-05-27T02:52:44;102767.44;;;15.24;45.52
48614;BME280;34408;51.426;5.444;2023-05-27T02:55:12;102775.59;;;15.24;45.69
48614;BME280;34408;51.426;5.444;2023-05-27T02:57:39;102772.25;;;15.22;45.58
48614;BME280;34408;51.426;5.444;2023-05-27T03:00:10;102777.88;;;15.20;45.50
48614;BME280;34408;51.426;5.444;2023-05-27T03:02:40;102773.69;;;15.18;45.64
48614;BME280;34408;51.426;5.444;2023-05-27T03:05:08;102781.81;;;15.18;45.60
48614;BME280;34408;51.426;5.444;2023-05-27T03:07:36;102773.06;;;15.16;45.69
48614;BME280;34408;51.426;5.444;2023-05-27T03:10:05;102779.94;;;15.12;45.96
48614;BME280;34408;51.426;5.444;2023-05-27T03:12:33;102773.03;;;15.09;46.05
48614;BME280;34408;51.426;5.444;2023-05-27T03:15:01;102771.59;;;15.07;46.18
48614;BME280;34408;51.426;5.444;2023-05-27T03:17:28;102775.53;;;15.04;46.12
48614;BME280;34408;51.426;5.444;2023-05-27T03:19:58;102775.53;;;15.04;45.84
48614;BME280;34408;51.426;5.444;2023-05-27T03:22:25;102780.31;;;15.02;46.29
48614;BME280;34408;51.426;5.444;2023-05-27T03:24:53;102773.44;;;15.00;45.96
48614;BME280;34408;51.426;5.444;2023-05-27T03:27:21;102776.16;;;15.00;46.20
48614;BME280;34408;51.426;5.444;2023-05-27T03:29:49;102773.84;;;14.96;46.22
48614;BME280;34408;51.426;5.444;2023-05-27T03:32:17;102766.97;;;14.94;46.30
48614;BME280;34408;51.426;5.444;2023-05-27T03:34:44;102771.75;;;14.92;46.27
48614;BME280;34408;51.426;5.444;2023-05-27T03:37:14;102763.00;;;14.90;46.13
48614;BME280;34408;51.426;5.444;2023-05-27T03:39:42;102764.25;;;14.87;46.21
48614;BME280;34408;51.426;5.444;2023-05-27T03:42:09;102759.88;;;14.86;46.47
48614;BME280;34408;51.426;5.444;2023-05-27T03:44:37;102754.66;;;14.85;46.55
48614;BME280;34408;51.426;5.444;2023-05-27T03:47:05;102760.06;;;14.85;46.31
48614;BME280;34408;51.426;5.444;2023-05-27T03:49:33;102746.72;;;14.83;46.54
48614;BME280;34408;51.426;5.444;2023-05-27T03:52:01;102736.28;;;14.74;46.57
48614;BME280;34408;51.426;5.444;2023-05-27T03:54:31;102757.13;;;14.80;46.67
48614;BME280;34408;51.426;5.444;2023-05-27T03:56:58;102750.06;;;14.79;46.67
48614;BME280;34408;51.426;5.444;2023-05-27T03:59:26;102755.47;;;14.79;46.65
48614;BME280;34408;51.426;5.444;2023-05-27T04:01:54;102753.16;;;14.76;46.47
48614;BME280;34408;51.426;5.444;2023-05-27T04:04:22;102752.34;;;14.75;46.51
48614;BME280;34408;51.426;5.444;2023-05-27T04:06:49;102750.66;;;14.74;46.42
48614;BME280;34408;51.426;5.444;2023-05-27T04:09:17;102742.75;;;14.73;46.74
48614;BME280;34408;51.426;5.444;2023-05-27T04:11:46;102745.44;;;14.73;46.49
48614;BME280;34408;51.426;5.444;2023-05-27T04:14:14;102742.94;;;14.71;46.72
48614;BME280;34408;51.426;5.444;2023-05-27T04:16:42;102742.09;;;14.71;46.58
48614;BME280;34408;51.426;5.444;2023-05-27T04:19:10;102745.22;;;14.68;46.73
48614;BME280;34408;51.426;5.444;2023-05-27T04:21:37;102737.94;;;14.68;46.73
48614;BME280;34408;51.426;5.444;2023-05-27T04:24:06;102738.13;;;14.67;47.21
48614;BME280;34408;51.426;5.444;2023-05-27T04:26:33;102744.59;;;14.65;47.09
48614;BME280;34408;51.426;5.444;2023-05-27T04:29:03;102743.97;;;14.63;46.74
48614;BME280;34408;51.426;5.444;2023-05-27T04:31:30;102746.66;;;14.63;46.98
48614;BME280;34408;51.426;5.444;2023-05-27T04:33:58;102740.41;;;14.63;46.85
48614;BME280;34408;51.426;5.444;2023-05-27T04:36:26;102728.53;;;14.57;47.28
48614;BME280;34408;51.426;5.444;2023-05-27T04:38:59;102742.50;;;14.61;46.94
48614;BME280;34408;51.426;5.444;2023-05-27T04:41:29;102734.78;;;14.58;47.48
48614;BME280;34408;51.426;5.444;2023-05-27T04:43:59;102732.06;;;14.58;47.02
48614;BME280;34408;51.426;5.444;2023-05-27T04:46:29;102731.44;;;14.56;47.03
48614;BME280;34408;51.426;5.444;2023-05-27T04:48:56;102721.66;;;14.55;47.54
48614;BME280;34408;51.426;5.444;2023-05-27T04:51:24;102719.97;;;14.54;47.44
48614;BME280;34408;51.426;5.444;2023-05-27T04:53:52;102718.31;;;14.53;47.66
48614;BME280;34408;51.426;5.444;2023-05-27T04:56:20;102724.75;;;14.52;47.18
48614;BME280;34408;51.426;5.444;2023-05-27T04:58:48;102722.25;;;14.50;47.26
48614;BME280;34408;51.426;5.444;2023-05-27T05:01:17;102716.66;;;14.52;47.54
48614;BME280;34408;51.426;5.444;2023-05-27T05:03:48;102717.69;;;14.51;46.99
48614;BME280;34408;51.426;5.444;2023-05-27T05:06:29;102717.69;;;14.51;47.49
48614;BME280;34408;51.426;5.444;2023-05-27T05:08:58;102707.69;;;14.51;47.43
48614;BME280;34408;51.426;5.444;2023-05-27T05:11:26;102712.28;;;14.51;47.65
48614;BME280;34408;51.426;5.444;2023-05-27T05:13:53;102714.97;;;14.51;47.39
48614;BME280;34408;51.426;5.444;2023-05-27T05:16:21;102711.88;;;14.54;47.45
48614;BME280;34408;51.426;5.444;2023-05-27T05:18:50;102711.03;;;14.53;47.20
48614;BME280;34408;51.426;5.444;2023-05-27T05:21:18;102709.38;;;14.52;47.11
48614;BME280;34408;51.426;5.444;2023-05-27T05:23:46;102714.56;;;14.54;47.32
48614;BME280;34408;51.426;5.444;2023-05-27T05:26:14;102713.75;;;14.53;47.25
48614;BME280;34408;51.426;5.444;2023-05-27T05:28:42;102717.28;;;14.54;47.32
48614;BME280;34408;51.426;5.444;2023-05-27T05:31:09;102708.13;;;14.55;47.49
48614;BME280;34408;51.426;5.444;2023-05-27T05:33:37;102706.25;;;14.55;47.21
48614;BME280;34408;51.426;5.444;2023-05-27T05:36:07;102705.22;;;14.56;47.06
48614;BME280;34408;51.426;5.444;2023-05-27T05:38:35;102701.69;;;14.56;47.37
48614;BME280;34408;51.426;5.444;2023-05-27T05:41:03;102702.91;;;14.53;47.70
48614;BME280;34408;51.426;5.444;2023-05-27T05:43:31;102710.44;;;14.58;47.66
48614;BME280;34408;51.426;5.444;2023-05-27T05:45:59;102702.09;;;14.59;47.41
48614;BME280;34408;51.426;5.444;2023-05-27T05:48:28;102693.78;;;14.61;48.02
48614;BME280;34408;51.426;5.444;2023-05-27T05:50:56;102698.16;;;14.62;47.95
48614;BME280;34408;51.426;5.444;2023-05-27T05:53:26;102695.88;;;14.65;47.69
48614;BME280;34408;51.426;5.444;2023-05-27T05:55:55;102688.59;;;14.66;47.57
48614;BME280;34408;51.426;5.444;2023-05-27T05:58:22;102692.75;;;14.69;47.58
48614;BME280;34408;51.426;5.444;2023-05-27T06:00:50;102699.00;;;14.69;47.64
48614;BME280;34408;51.426;5.444;2023-05-27T06:03:18;102693.41;;;14.71;48.13
48614;BME280;34408;51.426;5.444;2023-05-27T06:05:47;102691.31;;;14.73;48.13
48614;BME280;34408;51.426;5.444;2023-05-27T06:08:14;102705.69;;;14.73;48.02
48614;BME280;34408;51.426;5.444;2023-05-27T06:10:44;102706.31;;;14.75;48.23
48614;BME280;34408;51.426;5.444;2023-05-27T06:13:11;102698.81;;;14.77;47.85
48614;BME280;34408;51.426;5.444;2023-05-27T06:15:39;102697.78;;;14.78;48.06
48614;BME280;34408;51.426;5.444;2023-05-27T06:18:07;102686.75;;;14.80;48.21
48614;BME280;34408;51.426;5.444;2023-05-27T06:20:35;102689.06;;;14.83;48.25
48614;BME280;34408;51.426;5.444;2023-05-27T06:23:03;102686.97;;;14.85;48.33
48614;BME280;34408;51.426;5.444;2023-05-27T06:25:32;102678.44;;;14.88;47.95
48614;BME280;34408;51.426;5.444;2023-05-27T06:28:01;102681.78;;;14.90;48.24
48614;BME280;34408;51.426;5.444;2023-05-27T06:30:29;102685.94;;;14.92;48.22
48614;BME280;34408;51.426;5.444;2023-05-27T06:32:58;102682.41;;;14.92;48.45
48614;BME280;34408;51.426;5.444;2023-05-27T06:35:26;102683.66;;;14.96;47.99
48614;BME280;34408;51.426;5.444;2023-05-27T06:37:53;102679.72;;;14.98;48.25
48614;BME280;34408;51.426;5.444;2023-05-27T06:40:21;102669.72;;;14.99;48.30
48614;BME280;34408;51.426;5.444;2023-05-27T06:42:49;102664.50;;;14.97;48.10
48614;BME280;34408;51.426;5.444;2023-05-27T06:45:18;102672.22;;;15.01;48.36
48614;BME280;34408;51.426;5.444;2023-05-27T06:47:46;102676.38;;;15.03;48.48
48614;BME280;34408;51.426;5.444;2023-05-27T06:50:14;102672.00;;;15.02;48.35
48614;BME280;34408;51.426;5.444;2023-05-27T06:52:41;102669.09;;;15.04;48.30
48614;BME280;34408;51.426;5.444;2023-05-27T06:55:10;102668.44;;;14.88;50.51
48614;BME280;34408;51.426;5.444;2023-05-27T06:57:38;102672.63;;;14.30;52.13
48614;BME280;34408;51.426;5.444;2023-05-27T07:00:07;102667.31;;;14.09;52.50
48614;BME280;34408;51.426;5.444;2023-05-27T07:02:36;102671.28;;;14.13;52.44
48614;BME280;34408;51.426;5.444;2023-05-27T07:05:04;102666.97;;;14.25;51.74
48614;BME280;34408;51.426;5.444;2023-05-27T07:07:32;102671.41;;;14.39;51.28
48614;BME280;34408;51.426;5.444;2023-05-27T07:10:00;102669.41;;;14.54;50.92
48614;BME280;34408;51.426;5.444;2023-05-27T07:12:28;102675.25;;;14.64;50.62
48614;BME280;34408;51.426;5.444;2023-05-27T07:14:56;102668.63;;;14.74;50.62
48614;BME280;34408;51.426;5.444;2023-05-27T07:17:23;102670.94;;;14.83;50.42
48614;BME280;34408;51.426;5.444;2023-05-27T07:19:53;102663.03;;;14.88;50.27
48614;BME280;34408;51.426;5.444;2023-05-27T07:22:20;102660.75;;;14.98;50.51
48614;BME280;34408;51.426;5.444;2023-05-27T07:24:49;102658.47;;;15.02;50.20
48614;BME280;34408;51.426;5.444;2023-05-27T07:27:17;102659.94;;;15.05;49.79
48614;BME280;34408;51.426;5.444;2023-05-27T07:29:44;102660.78;;;15.12;49.93
48614;BME280;34408;51.426;5.444;2023-05-27T07:32:12;102657.66;;;15.15;50.04
48614;BME280;34408;51.426;5.444;2023-05-27T07:34:40;102652.66;;;15.18;49.91
48614;BME280;34408;51.426;5.444;2023-05-27T07:37:09;102655.78;;;15.22;49.78
48614;BME280;34408;51.426;5.444;2023-05-27T07:39:37;102657.44;;;15.23;49.59
48614;BME280;34408;51.426;5.444;2023-05-27T07:42:05;102653.47;;;15.25;49.71
48614;BME280;34408;51.426;5.444;2023-05-27T07:44:33;102653.06;;;15.28;49.62
48614;BME280;34408;51.426;5.444;2023-05-27T07:47:01;102647.63;;;15.28;49.78
48614;BME280;34408;51.426;5.444;2023-05-27T07:49:29;102642.84;;;15.30;49.39
48614;BME280;34408;51.426;5.444;2023-05-27T07:51:57;102645.56;;;15.30;49.77
48614;BME280;34408;51.426;5.444;2023-05-27T07:54:26;102631.81;;;15.32;49.57
48614;BME280;34408;51.426;5.444;2023-05-27T07:56:54;102632.44;;;15.34;49.76
48614;BME280;34408;51.426;5.444;2023-05-27T07:59:24;102629.50;;;15.36;49.89
48614;BME280;34408;51.426;5.444;2023-05-27T08:01:52;102636.38;;;15.38;49.82
48614;BME280;34408;51.426;5.444;2023-05-27T08:04:19;102629.72;;;15.41;49.82
48614;BME280;34408;51.426;5.444;2023-05-27T08:06:51;102632.22;;;15.42;50.11
48614;BME280;34408;51.426;5.444;2023-05-27T08:09:19;102624.69;;;15.44;49.85
48614;BME280;34408;51.426;5.444;2023-05-27T08:11:48;102619.06;;;15.46;49.88
48614;BME280;34408;51.426;5.444;2023-05-27T08:14:16;102622.41;;;15.48;49.89
48614;BME280;34408;51.426;5.444;2023-05-27T08:16:44;102612.41;;;15.48;49.88
48614;BME280;34408;51.426;5.444;2023-05-27T08:19:12;102607.81;;;15.49;49.98
48614;BME280;34408;51.426;5.444;2023-05-27T08:21:39;102602.81;;;15.52;50.15
48614;BME280;34408;51.426;5.444;2023-05-27T08:24:07;102598.84;;;15.55;50.09
48614;BME280;34408;51.426;5.444;2023-05-27T08:26:35;102601.34;;;15.56;50.14
48614;BME280;34408;51.426;5.444;2023-05-27T08:29:04;102588.44;;;15.58;50.14
48614;BME280;34408;51.426;5.444;2023-05-27T08:31:32;102591.72;;;15.60;50.15
48614;BME280;34408;51.426;5.444;2023-05-27T08:34:00;102578.81;;;15.62;50.15
48614;BME280;34408;51.426;5.444;2023-05-27T08:36:28;102586.72;;;15.64;50.07
48614;BME280;34408;51.426;5.444;2023-05-27T08:38:58;102571.66;;;15.75;49.76
48614;BME280;34408;51.426;5.444;2023-05-27T08:41:27;102566.28;;;15.68;50.17
48614;BME280;34408;51.426;5.444;2023-05-27T08:43:54;102566.50;;;15.67;50.48
48614;BME280;34408;51.426;5.444;2023-05-27T08:46:44;102570.66;;;15.69;50.43
48614;BME280;34408;51.426;5.444;2023-05-27T08:49:13;102565.63;;;15.73;50.31
48614;BME280;34408;51.426;5.444;2023-05-27T08:51:41;102571.66;;;15.75;50.20
48614;BME280;34408;51.426;5.444;2023-05-27T08:54:09;102560.84;;;15.75;50.57
48614;BME280;34408;51.426;5.444;2023-05-27T08:56:37;102554.38;;;15.76;50.56
48614;BME280;34408;51.426;5.444;2023-05-27T08:59:07;102555.59;;;15.80;50.63
48614;BME280;34408;51.426;5.444;2023-05-27T09:01:35;102551.81;;;15.87;50.74
48614;BME280;34408;51.426;5.444;2023-05-27T09:04:04;102556.16;;;15.95;50.77
48614;BME280;34408;51.426;5.444;2023-05-27T09:06:32;102546.31;;;16.01;50.63
48614;BME280;34408;51.426;5.444;2023-05-27T09:09:00;102538.59;;;16.04;50.58
48614;BME280;34408;51.426;5.444;2023-05-27T09:11:28;102535.44;;;16.07;50.78
48614;BME280;34408;51.426;5.444;2023-05-27T09:14:00;102537.72;;;16.10;50.68
48614;BME280;34408;51.426;5.444;2023-05-27T09:16:28;102536.44;;;16.13;50.58
48614;BME280;34408;51.426;5.444;2023-05-27T09:18:56;102530.81;;;16.14;50.65
48614;BME280;34408;51.426;5.444;2023-05-27T09:21:25;102531.44;;;16.16;50.75
48614;BME280;34408;51.426;5.444;2023-05-27T09:23:55;102529.94;;;16.20;50.71
48614;BME280;34408;51.426;5.444;2023-05-27T09:26:23;102524.91;;;16.24;50.75
48614;BME280;34408;51.426;5.444;2023-05-27T09:28:51;102527.41;;;16.25;50.62
48614;BME280;34408;51.426;5.444;2023-05-27T09:31:20;102513.63;;;16.27;50.57
48614;BME280;34408;51.426;5.444;2023-05-27T09:33:49;102517.16;;;16.27;50.83
48614;BME280;34408;51.426;5.444;2023-05-27T09:36:20;102514.22;;;16.29;50.74
48614;BME280;34408;51.426;5.444;2023-05-27T09:38:50;102512.75;;;16.33;50.94
48614;BME280;34408;51.426;5.444;2023-05-27T09:41:23;102507.50;;;16.38;51.03
48614;BME280;34408;51.426;5.444;2023-05-27T09:43:53;102519.56;;;16.42;50.90
48614;BME280;34408;51.426;5.444;2023-05-27T09:46:22;102506.38;;;16.46;50.82
48614;BME280;34408;51.426;5.444;2023-05-27T09:48:53;102512.44;;;16.48;50.70
48614;BME280;34408;51.426;5.444;2023-05-27T09:51:22;102506.56;;;16.51;50.74
48614;BME280;34408;51.426;5.444;2023-05-27T09:53:53;102494.44;;;16.53;50.88
48614;BME280;34408;51.426;5.444;2023-05-27T09:56:24;102499.19;;;16.58;50.95
48614;BME280;34408;51.426;5.444;2023-05-27T09:58:54;102502.31;;;16.62;50.96
48614;BME280;34408;51.426;5.444;2023-05-27T10:01:25;102490.38;;;16.63;50.88
48614;BME280;34408;51.426;5.444;2023-05-27T10:03:55;102493.75;;;16.65;50.81
48614;BME280;34408;51.426;5.444;2023-05-27T10:06:25;102491.63;;;16.67;50.81
48614;BME280;34408;51.426;5.444;2023-05-27T10:08:55;102487.19;;;16.72;51.05
48614;BME280;34408;51.426;5.444;2023-05-27T10:11:23;102476.72;;;16.76;51.01
48614;BME280;34408;51.426;5.444;2023-05-27T10:13:52;102482.31;;;16.81;50.84
48614;BME280;34408;51.426;5.444;2023-05-27T10:16:21;102478.72;;;16.87;51.14
48614;BME280;34408;51.426;5.444;2023-05-27T10:18:53;102468.28;;;16.84;51.09
48614;BME280;34408;51.426;5.444;2023-05-27T10:21:23;102468.16;;;16.97;51.11
48614;BME280;34408;51.426;5.444;2023-05-27T10:23:58;102467.94;;;16.99;50.25
48614;BME280;34408;51.426;5.444;2023-05-27T10:26:32;102464.78;;;17.02;50.62
48614;BME280;34408;51.426;5.444;2023-05-27T10:29:07;102461.59;;;17.05;50.69
48614;BME280;34408;51.426;5.444;2023-05-27T10:31:36;102462.59;;;17.10;50.93
48614;BME280;34408;51.426;5.444;2023-05-27T10:34:04;102452.69;;;17.16;50.67
48614;BME280;34408;51.426;5.444;2023-05-27T10:36:33;102448.69;;;17.18;49.88
48614;BME280;34408;51.426;5.444;2023-05-27T10:39:05;102458.28;;;17.21;49.75
48614;BME280;34408;51.426;5.444;2023-05-27T10:41:40;102455.34;;;17.22;49.88
48614;BME280;34408;51.426;5.444;2023-05-27T10:44:08;102453.00;;;17.26;49.92
48614;BME280;34408;51.426;5.444;2023-05-27T10:46:40;102441.78;;;17.34;50.70
48614;BME280;34408;51.426;5.444;2023-05-27T10:49:10;102447.16;;;17.41;50.36
48614;BME280;34408;51.426;5.444;2023-05-27T10:51:38;102435.50;;;17.52;50.39
48614;BME280;34408;51.426;5.444;2023-05-27T10:54:07;102430.34;;;17.62;50.43
48614;BME280;34408;51.426;5.444;2023-05-27T10:56:47;102435.72;;;17.69;50.17
48614;BME280;34408;51.426;5.444;2023-05-27T10:59:20;102423.78;;;17.70;49.39
48614;BME280;34408;51.426;5.444;2023-05-27T11:01:52;102415.41;;;17.71;49.30
48614;BME280;34408;51.426;5.444;2023-05-27T11:04:20;102420.59;;;17.73;49.08
48614;BME280;34408;51.426;5.444;2023-05-27T11:06:59;102414.94;;;17.74;49.31
48614;BME280;34408;51.426;5.444;2023-05-27T11:09:31;102409.41;;;17.81;49.72
48614;BME280;34408;51.426;5.444;2023-05-27T11:12:13;102405.53;;;17.88;49.27
48614;BME280;34408;51.426;5.444;2023-05-27T11:14:42;102390.63;;;17.91;48.69
48614;BME280;34408;51.426;5.444;2023-05-27T11:17:10;102397.50;;;17.94;48.71
48614;BME280;34408;51.426;5.444;2023-05-27T11:19:38;102394.91;;;17.99;48.32
48614;BME280;34408;51.426;5.444;2023-05-27T11:22:08;102385.69;;;18.00;49.08
48614;BME280;34408;51.426;5.444;2023-05-27T11:24:37;102388.28;;;18.06;48.84
48614;BME280;34408;51.426;5.444;2023-05-27T11:27:08;102396.00;;;18.09;47.42
48614;BME280;34408;51.426;5.444;2023-05-27T11:29:49;102383.81;;;18.12;47.95
48614;BME280;34408;51.426;5.444;2023-05-27T11:32:17;102383.69;;;18.18;48.43
48614;BME280;34408;51.426;5.444;2023-05-27T11:34:45;102381.47;;;18.27;49.00
48614;BME280;34408;51.426;5.444;2023-05-27T11:37:14;102375.66;;;18.35;48.73
48614;BME280;34408;51.426;5.444;2023-05-27T11:39:50;102360.63;;;18.56;48.38
48614;BME280;34408;51.426;5.444;2023-05-27T11:42:22;102369.88;;;18.67;48.69
48614;BME280;34408;51.426;5.444;2023-05-27T11:44:51;102368.09;;;18.72;48.55
48614;BME280;34408;51.426;5.444;2023-05-27T11:47:20;102358.97;;;18.78;48.32
48614;BME280;34408;51.426;5.444;2023-05-27T11:49:48;102356.84;;;18.80;47.38
48614;BME280;34408;51.426;5.444;2023-05-27T11:52:17;102357.91;;;18.79;46.69
48614;BME280;34408;51.426;5.444;2023-05-27T11:54:50;102341.81;;;18.78;46.94
48614;BME280;34408;51.426;5.444;2023-05-27T11:57:24;102355.75;;;18.81;46.73
48614;BME280;34408;51.426;5.444;2023-05-27T11:59:52;102347.13;;;18.84;46.49
48614;BME280;34408;51.426;5.444;2023-05-27T12:02:19;102337.63;;;18.87;46.75
48614;BME280;34408;51.426;5.444;2023-05-27T12:04:48;102329.91;;;18.96;47.02
48614;BME280;34408;51.426;5.444;2023-05-27T12:07:16;102336.53;;;19.00;45.96
48614;BME280;34408;51.426;5.444;2023-05-27T12:09:47;102333.50;;;19.13;44.79
48614;BME280;34408;51.426;5.444;2023-05-27T12:12:18;102326.34;;;19.24;43.55
48614;BME280;34408;51.426;5.444;2023-05-27T12:14:46;102328.19;;;19.35;43.91
48614;BME280;34408;51.426;5.444;2023-05-27T12:17:14;102330.44;;;19.38;43.41
48614;BME280;34408;51.426;5.444;2023-05-27T12:19:42;102316.22;;;19.36;43.17
48614;BME280;34408;51.426;5.444;2023-05-27T12:22:09;102321.19;;;19.39;43.28
48614;BME280;34408;51.426;5.444;2023-05-27T12:24:37;102319.75;;;19.36;43.45
48614;BME280;34408;51.426;5.444;2023-05-27T12:27:05;102314.41;;;19.41;43.75
48614;BME280;34408;51.426;5.444;2023-05-27T12:29:34;102308.72;;;19.43;43.97
48614;BME280;34408;51.426;5.444;2023-05-27T12:32:02;102301.94;;;19.45;43.60
48614;BME280;34408;51.426;5.444;2023-05-27T12:34:30;102291.47;;;19.54;44.17
48614;BME280;34408;51.426;5.444;2023-05-27T12:36:58;102298.75;;;19.65;42.50
48614;BME280;34408;51.426;5.444;2023-05-27T12:39:26;102285.78;;;19.72;42.58
48614;BME280;34408;51.426;5.444;2023-05-27T12:41:54;102283.16;;;19.77;42.56
48614;BME280;34408;51.426;5.444;2023-05-27T12:44:21;102281.66;;;19.87;43.81
48614;BME280;34408;51.426;5.444;2023-05-27T12:46:51;102275.19;;;19.93;43.75
48614;BME280;34408;51.426;5.444;2023-05-27T12:49:19;102273.06;;;19.95;43.59
48614;BME280;34408;51.426;5.444;2023-05-27T12:51:46;102263.53;;;19.97;43.84
48614;BME280;34408;51.426;5.444;2023-05-27T12:54:14;102270.56;;;20.10;43.60
48614;BME280;34408;51.426;5.444;2023-05-27T12:56:42;102268.72;;;20.15;43.70
48614;BME280;34408;51.426;5.444;2023-05-27T12:59:10;102263.34;;;20.21;43.87